createdAt,value
2019-05-03T00:02:05.328Z,8.89
2019-05-03T00:04:37.622Z,8.88
2019-05-03T00:07:11.686Z,8.92
2019-05-03T00:09:43.908Z,9.02
2019-05-03T00:12:16.257Z,9.17
2019-05-03T00:14:48.585Z,9.25
2019-05-03T00:17:21.875Z,9.25
2019-05-03T00:19:54.318Z,9.23
2019-05-03T00:22:26.558Z,9.17
2019-05-03T00:25:07.022Z,9.17
2019-05-03T00:27:32.802Z,9.27
2019-05-03T00:30:05.066Z,9.28
2019-05-03T00:32:37.336Z,9.18
2019-05-03T00:35:09.600Z,9.12
2019-05-03T00:37:42.048Z,9.13
2019-05-03T00:40:14.537Z,9.22
2019-05-03T00:42:46.790Z,9.23
2019-05-03T00:45:19.034Z,9.30
2019-05-03T00:47:52.738Z,9.41
2019-05-03T00:50:25.145Z,9.50
2019-05-03T00:52:57.388Z,9.58
2019-05-03T00:55:29.645Z,9.66
2019-05-03T00:58:02.530Z,9.66
2019-05-03T01:00:34.943Z,9.64
2019-05-03T01:03:07.231Z,9.68
2019-05-03T01:05:39.500Z,9.59
2019-05-03T01:08:12.671Z,9.55
2019-05-03T01:10:45.119Z,9.52
2019-05-03T01:13:17.621Z,9.52
2019-05-03T01:15:51.891Z,9.53
2019-05-03T01:18:23.688Z,9.48
2019-05-03T01:20:55.962Z,9.38
2019-05-03T01:23:28.380Z,9.38
2019-05-03T01:26:02.506Z,9.44
2019-05-03T01:28:34.954Z,9.44
2019-05-03T01:31:07.217Z,9.42
2019-05-03T01:33:39.714Z,9.50
2019-05-03T01:36:12.131Z,9.57
2019-05-03T01:38:44.672Z,9.57
2019-05-03T01:41:17.302Z,9.54
2019-05-03T01:43:52.685Z,9.47
2019-05-03T01:46:25.211Z,9.39
2019-05-03T01:48:57.573Z,9.26
2019-05-03T01:51:29.812Z,9.24
2019-05-03T01:54:02.196Z,9.28
2019-05-03T01:56:34.458Z,9.19
2019-05-03T01:59:06.758Z,9.10
2019-05-03T02:01:39.076Z,9.02
2019-05-03T02:04:12.242Z,8.96
2019-05-03T02:06:44.678Z,8.86
2019-05-03T02:09:16.964Z,8.74
2019-05-03T02:11:49.214Z,8.64
2019-05-03T02:14:22.156Z,8.56
2019-05-03T02:16:56.885Z,8.53
2019-05-03T02:19:29.160Z,8.51
2019-05-03T02:22:02.835Z,8.45
2019-05-03T02:24:35.323Z,8.38
2019-05-03T02:27:08.827Z,8.31
2019-05-03T02:29:41.865Z,8.29
2019-05-03T02:32:14.370Z,8.26
2019-05-03T02:34:46.692Z,8.21
2019-05-03T02:37:18.966Z,8.15
2019-05-03T02:39:53.139Z,8.13
2019-05-03T02:42:26.527Z,8.13
2019-05-03T02:45:00.125Z,8.17
2019-05-03T02:47:32.362Z,8.24
2019-05-03T02:50:05.823Z,8.32
2019-05-03T02:52:38.348Z,8.40
2019-05-03T02:55:10.611Z,8.44
2019-05-03T02:57:46.233Z,8.48
2019-05-03T03:00:16.946Z,8.47
2019-05-03T03:02:49.219Z,8.45
2019-05-03T03:05:21.486Z,8.45
2019-05-03T03:07:55.848Z,8.45
2019-05-03T03:10:27.751Z,8.38
2019-05-03T03:13:00.133Z,8.29
2019-05-03T03:15:32.379Z,8.20
2019-05-03T03:18:06.299Z,8.13
2019-05-03T03:20:38.839Z,8.08
2019-05-03T03:23:14.525Z,8.06
2019-05-03T03:25:46.206Z,8.08
2019-05-03T03:28:18.788Z,8.10
2019-05-03T03:30:51.058Z,8.09
2019-05-03T03:33:27.688Z,8.09
2019-05-03T03:36:07.284Z,8.06
2019-05-03T03:38:31.262Z,8.04
2019-05-03T03:41:05.888Z,8.05
2019-05-03T03:43:37.463Z,8.07
2019-05-03T03:46:09.800Z,8.11
2019-05-03T03:48:42.206Z,8.10
2019-05-03T03:51:15.516Z,8.17
2019-05-03T03:53:48.314Z,8.24
2019-05-03T03:56:21.142Z,8.31
2019-05-03T03:58:55.604Z,8.34
2019-05-03T04:01:27.543Z,8.37
2019-05-03T04:03:59.798Z,8.47
2019-05-03T04:06:32.097Z,8.53
2019-05-03T04:09:05.208Z,8.48
2019-05-03T04:11:38.903Z,8.46
2019-05-03T04:14:11.295Z,8.43
2019-05-03T04:16:45.444Z,8.45
2019-05-03T04:19:17.655Z,8.49
2019-05-03T04:21:49.886Z,8.53
2019-05-03T04:24:22.414Z,8.47
2019-05-03T04:26:56.306Z,8.42
2019-05-03T04:29:28.829Z,8.46
2019-05-03T04:32:01.128Z,8.47
2019-05-03T04:34:35.687Z,8.45
2019-05-03T04:37:07.353Z,8.37
2019-05-03T04:39:40.691Z,8.27
2019-05-03T04:42:16.158Z,8.19
2019-05-03T04:44:47.259Z,8.15
2019-05-03T04:47:20.573Z,8.17
2019-05-03T04:49:55.291Z,8.23
2019-05-03T04:52:26.869Z,8.31
2019-05-03T04:54:59.101Z,8.43
2019-05-03T04:57:40.691Z,8.56
2019-05-03T05:00:07.061Z,8.70
2019-05-03T05:02:39.435Z,8.80
2019-05-03T05:05:11.715Z,8.81
2019-05-03T05:07:45.611Z,8.88
2019-05-03T05:10:18.273Z,8.95
2019-05-03T05:12:50.615Z,8.99
2019-05-03T05:15:22.997Z,8.99
2019-05-03T05:17:56.267Z,9.01
2019-05-03T05:20:28.743Z,9.06
2019-05-03T05:23:01.129Z,9.03
2019-05-03T05:25:35.381Z,9.10
2019-05-03T05:28:07.473Z,9.17
2019-05-03T05:30:39.702Z,9.15
2019-05-03T05:33:11.901Z,9.16
2019-05-03T05:35:44.379Z,9.30
2019-05-03T05:38:16.645Z,9.48
2019-05-03T05:40:48.876Z,9.64
2019-05-03T05:43:21.181Z,9.59
2019-05-03T05:45:55.183Z,9.49
2019-05-03T05:48:27.322Z,9.40
2019-05-03T05:50:59.641Z,9.36
2019-05-03T05:53:32.062Z,9.22
2019-05-03T05:56:05.023Z,9.05
2019-05-03T05:58:37.347Z,8.84
2019-05-03T06:01:09.800Z,8.75
2019-05-03T06:03:42.245Z,8.64
2019-05-03T06:06:15.309Z,8.57
2019-05-03T06:08:47.729Z,8.47
2019-05-03T06:11:19.946Z,8.39
2019-05-03T06:13:52.293Z,8.34
2019-05-03T06:16:24.683Z,8.37
2019-05-03T06:18:57.982Z,8.55
2019-05-03T06:21:30.457Z,8.75
2019-05-03T06:24:04.439Z,8.83
2019-05-03T06:26:36.820Z,8.89
2019-05-03T06:29:09.054Z,8.96
2019-05-03T06:31:41.353Z,8.95
2019-05-03T06:34:15.000Z,8.96
2019-05-03T06:36:47.369Z,8.89
2019-05-03T06:39:19.722Z,8.86
2019-05-03T06:41:52.260Z,8.95
2019-05-03T06:44:28.516Z,9.20
2019-05-03T06:47:00.992Z,9.40
2019-05-03T06:49:34.459Z,9.72
2019-05-03T06:52:06.425Z,10.01
2019-05-03T06:54:38.652Z,10.31
2019-05-03T06:57:10.858Z,10.40
2019-05-03T06:59:45.174Z,10.63
2019-05-03T07:02:17.316Z,10.61
2019-05-03T07:04:49.577Z,10.71
2019-05-03T07:07:22.387Z,10.83
2019-05-03T07:09:54.731Z,10.99
2019-05-03T07:12:27.171Z,10.86
2019-05-03T07:14:59.411Z,10.73
2019-05-03T07:17:31.990Z,10.46
2019-05-03T07:20:05.567Z,10.35
2019-05-03T07:22:38.011Z,10.33
2019-05-03T07:25:10.263Z,10.36
2019-05-03T07:27:42.699Z,10.41
2019-05-03T07:30:15.651Z,10.45
2019-05-03T07:32:47.930Z,10.54
2019-05-03T07:35:22.233Z,10.63
2019-05-03T07:37:55.305Z,10.74
2019-05-03T07:40:27.823Z,10.73
2019-05-03T07:43:00.060Z,10.77
2019-05-03T07:45:32.291Z,10.91
2019-05-03T07:48:04.701Z,10.96
2019-05-03T07:50:37.101Z,11.11
2019-05-03T07:53:09.352Z,11.43
2019-05-03T07:55:41.571Z,11.86
2019-05-03T07:58:15.014Z,12.07
2019-05-03T08:00:47.407Z,12.19
2019-05-03T08:03:19.784Z,12.20
2019-05-03T08:05:52.044Z,12.25
2019-05-03T08:08:26.561Z,12.17
2019-05-03T08:10:58.877Z,11.64
2019-05-03T08:13:31.321Z,11.45
2019-05-03T08:16:05.660Z,11.34
2019-05-03T08:18:37.547Z,11.49
2019-05-03T08:21:09.838Z,11.33
2019-05-03T08:23:42.062Z,11.18
2019-05-03T08:26:15.309Z,11.17
2019-05-03T08:28:47.713Z,11.08
2019-05-03T08:31:20.008Z,11.11
2019-05-03T08:33:55.372Z,10.96
2019-05-03T08:36:27.803Z,10.98
2019-05-03T08:39:00.026Z,11.05
2019-05-03T08:41:32.310Z,11.12
2019-05-03T08:44:05.225Z,11.13
2019-05-03T08:46:37.503Z,11.17
2019-05-03T08:49:09.828Z,11.26
2019-05-03T08:51:44.345Z,11.60
2019-05-03T08:54:16.194Z,11.89
2019-05-03T08:56:48.405Z,12.11
2019-05-03T08:59:29.712Z,12.63
2019-05-03T09:01:55.052Z,12.77
2019-05-03T09:04:36.256Z,12.77
2019-05-03T09:07:01.457Z,12.79
2019-05-03T09:09:34.871Z,12.61
2019-05-03T09:12:07.330Z,12.43
2019-05-03T09:14:45.475Z,12.58
2019-05-03T09:17:15.290Z,12.74
2019-05-03T09:19:47.689Z,12.70
2019-05-03T09:22:19.989Z,12.64
2019-05-03T09:24:54.046Z,12.76
2019-05-03T09:27:26.250Z,12.92
2019-05-03T09:29:58.459Z,12.87
2019-05-03T09:32:30.752Z,12.62
2019-05-03T09:35:02.959Z,12.29
2019-05-03T09:37:35.469Z,12.24
2019-05-03T09:40:07.675Z,12.24
2019-05-03T09:42:39.880Z,12.34
2019-05-03T09:45:12.245Z,12.39
2019-05-03T09:47:44.917Z,12.70
2019-05-03T09:50:17.258Z,12.86
2019-05-03T09:52:49.828Z,12.70
2019-05-03T09:55:22.117Z,13.00
2019-05-03T09:57:55.529Z,13.88
2019-05-03T10:00:28.985Z,14.56
2019-05-03T10:03:01.269Z,14.41
2019-05-03T10:05:35.080Z,13.92
2019-05-03T10:08:07.778Z,13.62
2019-05-03T10:10:40.313Z,13.53
2019-05-03T10:13:16.687Z,13.56
2019-05-03T10:15:46.623Z,13.58
2019-05-03T10:18:18.843Z,13.57
2019-05-03T10:20:51.064Z,14.31
2019-05-03T10:23:24.813Z,14.74
2019-05-03T10:25:57.207Z,14.80
2019-05-03T10:28:29.589Z,14.70
2019-05-03T10:31:04.831Z,14.63
2019-05-03T10:33:37.180Z,14.69
2019-05-03T10:36:09.416Z,14.85
2019-05-03T10:38:41.918Z,14.99
2019-05-03T10:41:14.250Z,14.93
2019-05-03T10:43:47.453Z,14.63
2019-05-03T10:46:19.718Z,14.57
2019-05-03T10:48:52.009Z,15.00
2019-05-03T10:51:24.823Z,15.17
2019-05-03T10:53:57.264Z,15.11
2019-05-03T10:56:29.611Z,14.65
2019-05-03T10:59:02.070Z,14.64
2019-05-03T11:01:35.890Z,14.71
2019-05-03T11:04:09.472Z,14.72
2019-05-03T11:06:41.789Z,15.04
2019-05-03T11:09:15.250Z,14.69
2019-05-03T11:11:47.959Z,14.47
2019-05-03T11:14:20.562Z,14.80
2019-05-03T11:16:55.058Z,14.73
2019-05-03T11:19:26.763Z,14.19
2019-05-03T11:21:59.037Z,13.98
2019-05-03T11:24:31.241Z,13.78
2019-05-03T11:27:03.506Z,13.76
2019-05-03T11:29:35.795Z,13.74
2019-05-03T11:32:11.020Z,13.53
2019-05-03T11:34:44.933Z,13.29
2019-05-03T11:37:17.381Z,13.08
2019-05-03T11:39:49.641Z,12.91
2019-05-03T11:42:21.887Z,13.13
2019-05-03T11:44:54.103Z,13.34
2019-05-03T11:47:27.694Z,13.56
2019-05-03T11:50:00.086Z,14.09
2019-05-03T11:52:32.358Z,14.22
2019-05-03T11:55:10.939Z,14.23
2019-05-03T11:57:38.589Z,14.30
2019-05-03T12:00:10.821Z,13.58
2019-05-03T12:02:44.785Z,13.68
2019-05-03T12:05:17.547Z,14.13
2019-05-03T12:07:49.818Z,14.48
2019-05-03T12:10:43.471Z,14.46
2019-05-03T12:12:56.196Z,14.83
2019-05-03T12:15:28.491Z,14.29
2019-05-03T12:18:01.374Z,13.82
2019-05-03T12:20:36.335Z,14.35
2019-05-03T12:23:08.551Z,16.94
2019-05-03T12:25:42.047Z,17.67
2019-05-03T12:28:15.381Z,16.38
2019-05-03T12:30:48.708Z,16.17
2019-05-03T12:33:20.971Z,16.19
2019-05-03T12:35:55.158Z,16.27
2019-05-03T12:38:27.204Z,16.13
2019-05-03T12:40:59.463Z,15.99
2019-05-03T12:43:31.689Z,15.88
2019-05-03T12:46:06.200Z,15.64
2019-05-03T12:48:38.505Z,14.95
2019-05-03T12:51:11.235Z,14.55
2019-05-03T12:53:44.093Z,14.28
2019-05-03T12:56:23.394Z,13.93
2019-05-03T12:58:50.370Z,13.57
2019-05-03T13:01:24.949Z,13.41
2019-05-03T13:03:56.609Z,13.45
2019-05-03T13:06:29.232Z,12.85
2019-05-03T13:09:01.458Z,12.64
2019-05-03T13:11:36.595Z,12.22
2019-05-03T13:14:09.354Z,12.15
2019-05-03T13:16:41.733Z,12.23
2019-05-03T13:19:15.207Z,12.50
2019-05-03T13:21:47.670Z,12.76
2019-05-03T13:24:23.246Z,12.84
2019-05-03T13:26:53.905Z,12.65
2019-05-03T13:29:28.508Z,12.72
2019-05-03T13:32:02.240Z,12.75
2019-05-03T13:34:35.385Z,12.87
2019-05-03T13:37:07.905Z,12.94
2019-05-03T13:39:40.146Z,12.95
2019-05-03T13:42:12.381Z,12.96
2019-05-03T13:44:44.985Z,13.12
2019-05-03T13:47:17.305Z,13.35
2019-05-03T13:49:51.585Z,13.03
2019-05-03T13:52:25.100Z,12.87
2019-05-03T13:54:57.331Z,13.27
2019-05-03T13:57:29.641Z,13.09
2019-05-03T14:00:01.914Z,13.40
2019-05-03T14:02:35.767Z,13.72
2019-05-03T14:05:08.210Z,14.39
2019-05-03T14:07:40.522Z,14.71
2019-05-03T14:10:12.741Z,15.24
2019-05-03T14:12:45.533Z,15.27
2019-05-03T14:15:17.937Z,15.07
2019-05-03T14:17:50.004Z,14.80
2019-05-03T14:20:23.373Z,14.60
2019-05-03T14:22:55.611Z,14.09
2019-05-03T14:25:28.908Z,13.32
2019-05-03T14:28:01.130Z,12.69
2019-05-03T14:30:34.683Z,12.09
2019-05-03T14:33:07.052Z,11.46
2019-05-03T14:35:39.263Z,11.27
2019-05-03T14:38:11.852Z,11.51
2019-05-03T14:40:44.873Z,11.56
2019-05-03T14:43:18.067Z,11.48
2019-05-03T14:45:50.316Z,11.25
2019-05-03T14:48:24.646Z,10.96
2019-05-03T14:50:57.457Z,10.67
2019-05-03T14:53:30.063Z,10.57
2019-05-03T14:56:02.590Z,10.43
2019-05-03T14:58:35.302Z,10.43
2019-05-03T15:01:07.717Z,10.57
2019-05-03T15:03:39.959Z,10.66
2019-05-03T15:06:12.189Z,10.72
2019-05-03T15:08:44.421Z,11.00
2019-05-03T15:11:16.704Z,11.06
2019-05-03T15:13:48.918Z,11.34
2019-05-03T15:16:21.165Z,11.61
2019-05-03T15:18:54.852Z,11.60
2019-05-03T15:21:27.258Z,11.44
2019-05-03T15:23:59.552Z,11.38
2019-05-03T15:26:31.765Z,11.24
2019-05-03T15:29:04.863Z,11.26
2019-05-03T15:31:37.339Z,11.17
2019-05-03T15:34:09.782Z,11.21
2019-05-03T15:36:42.080Z,11.45
2019-05-03T15:39:15.381Z,11.88
2019-05-03T15:41:49.851Z,12.37
2019-05-03T15:44:22.111Z,12.51
2019-05-03T15:46:54.590Z,12.66
2019-05-03T15:49:27.696Z,12.60
2019-05-03T15:52:00.315Z,12.45
2019-05-03T15:54:32.532Z,12.36
2019-05-03T15:57:05.132Z,12.35
2019-05-03T15:59:37.644Z,12.45
2019-05-03T16:02:09.956Z,12.72
2019-05-03T16:04:42.498Z,12.52
2019-05-03T16:07:14.721Z,12.38
2019-05-03T16:09:47.328Z,12.32
2019-05-03T16:12:19.742Z,12.15
2019-05-03T16:14:52.084Z,11.90
2019-05-03T16:17:24.565Z,11.84
2019-05-03T16:19:56.754Z,11.83
2019-05-03T16:22:28.906Z,11.86
2019-05-03T16:25:01.375Z,11.75
2019-05-03T16:27:33.710Z,11.45
2019-05-03T16:30:05.984Z,11.43
2019-05-03T16:32:38.074Z,11.39
2019-05-03T16:35:10.340Z,11.38
2019-05-03T16:37:46.676Z,11.37
2019-05-03T16:40:19.199Z,11.31
2019-05-03T16:42:53.779Z,11.19
2019-05-03T16:45:26.019Z,11.16
2019-05-03T16:47:58.334Z,10.93
2019-05-03T16:50:32.263Z,10.63
2019-05-03T16:53:05.565Z,10.65
2019-05-03T16:55:38.109Z,10.73
2019-05-03T16:58:10.388Z,10.70
2019-05-03T17:00:44.608Z,10.85
2019-05-03T17:03:17.231Z,10.74
2019-05-03T17:05:49.646Z,10.78
2019-05-03T17:08:21.862Z,10.81
2019-05-03T17:10:54.468Z,10.73
2019-05-03T17:13:28.527Z,10.53
2019-05-03T17:16:00.730Z,10.36
2019-05-03T17:18:35.120Z,10.33
2019-05-03T17:21:07.152Z,10.44
2019-05-03T17:23:39.658Z,10.58
2019-05-03T17:26:11.954Z,10.52
2019-05-03T17:28:44.745Z,10.47
2019-05-03T17:31:17.148Z,10.32
2019-05-03T17:33:53.650Z,10.27
2019-05-03T17:36:25.023Z,10.23
2019-05-03T17:38:58.551Z,10.06
2019-05-03T17:41:30.841Z,9.85
2019-05-03T17:44:04.966Z,9.82
2019-05-03T17:46:37.298Z,9.68
2019-05-03T17:49:09.671Z,9.62
2019-05-03T17:51:42.118Z,9.47
2019-05-03T17:54:14.570Z,9.40
2019-05-03T17:56:46.758Z,9.32
2019-05-03T17:59:19.090Z,9.29
2019-05-03T18:01:51.366Z,9.26
2019-05-03T18:04:24.834Z,9.23
2019-05-03T18:06:57.132Z,9.20
2019-05-03T18:09:29.570Z,9.21
2019-05-03T18:12:01.769Z,9.20
2019-05-03T18:14:34.502Z,9.17
2019-05-03T18:17:06.995Z,9.25
2019-05-03T18:19:39.211Z,9.23
2019-05-03T18:22:11.258Z,9.29
2019-05-03T18:24:45.477Z,9.29
2019-05-03T18:27:17.758Z,9.34
2019-05-03T18:29:49.968Z,9.29
2019-05-03T18:32:22.368Z,9.25
2019-05-03T18:34:54.803Z,9.26
2019-05-03T18:37:28.084Z,9.18
2019-05-03T18:40:00.392Z,9.09
2019-05-03T18:42:32.725Z,9.07
2019-05-03T18:45:04.951Z,9.03
2019-05-03T18:47:37.252Z,8.98
2019-05-03T18:50:09.452Z,8.88
2019-05-03T18:52:44.833Z,8.74
2019-05-03T18:55:16.946Z,8.62
2019-05-03T18:57:49.222Z,8.54
2019-05-03T19:00:21.426Z,8.44
2019-05-03T19:02:54.600Z,8.37
2019-05-03T19:05:26.941Z,8.26
2019-05-03T19:07:59.210Z,8.22
2019-05-03T19:10:31.435Z,8.18
2019-05-03T19:13:04.699Z,8.22
2019-05-03T19:15:37.230Z,8.15
2019-05-03T19:18:09.488Z,8.19
2019-05-03T19:20:41.715Z,8.25
2019-05-03T19:23:15.432Z,8.24
2019-05-03T19:25:49.558Z,8.20
2019-05-03T19:28:21.750Z,8.09
2019-05-03T19:30:55.191Z,7.98
2019-05-03T19:33:27.503Z,7.97
2019-05-03T19:36:00.308Z,7.88
2019-05-03T19:38:32.757Z,7.81
2019-05-03T19:41:05.088Z,7.84
2019-05-03T19:43:38.383Z,7.71
2019-05-03T19:46:10.671Z,7.62
2019-05-03T19:48:42.929Z,7.48
2019-05-03T19:51:15.156Z,7.43
2019-05-03T19:53:47.414Z,7.46
2019-05-03T19:56:20.822Z,7.53
2019-05-03T19:58:55.238Z,7.58
2019-05-03T20:01:27.563Z,7.55
2019-05-03T20:03:59.753Z,7.58
2019-05-03T20:06:32.015Z,7.61
2019-05-03T20:09:04.203Z,7.55
2019-05-03T20:11:37.245Z,7.48
2019-05-03T20:14:09.466Z,7.53
2019-05-03T20:16:41.695Z,7.57
2019-05-03T20:19:18.957Z,7.64
2019-05-03T20:21:47.907Z,7.61
2019-05-03T20:24:20.164Z,7.46
2019-05-03T20:26:52.375Z,7.35
2019-05-03T20:29:25.114Z,7.37
2019-05-03T20:31:57.624Z,7.43
2019-05-03T20:34:30.020Z,7.39
2019-05-03T20:37:02.242Z,7.51
2019-05-03T20:39:34.864Z,7.54
2019-05-03T20:42:07.277Z,7.59
2019-05-03T20:44:39.818Z,7.59
2019-05-03T20:47:14.929Z,7.62
2019-05-03T20:49:47.419Z,7.67
2019-05-03T20:52:19.602Z,7.60
2019-05-03T20:54:51.822Z,7.56
2019-05-03T20:57:24.752Z,7.59
2019-05-03T20:59:56.979Z,7.53
2019-05-03T21:02:29.215Z,7.53
2019-05-03T21:05:01.443Z,7.60
2019-05-03T21:07:35.174Z,7.58
2019-05-03T21:10:07.440Z,7.59
2019-05-03T21:12:39.733Z,7.55
2019-05-03T21:15:12.049Z,7.58
2019-05-03T21:17:45.067Z,7.62
2019-05-03T21:20:17.656Z,7.63
2019-05-03T21:22:49.893Z,7.68
2019-05-03T21:25:22.214Z,7.68
2019-05-03T21:27:55.523Z,7.70
2019-05-03T21:30:27.892Z,7.70
2019-05-03T21:33:00.102Z,7.70
2019-05-03T21:35:39.409Z,7.74
2019-05-03T21:38:06.457Z,7.70
2019-05-03T21:40:38.666Z,7.51
2019-05-03T21:43:10.875Z,7.41
2019-05-03T21:45:45.332Z,7.34
2019-05-03T21:48:19.680Z,7.32
2019-05-03T21:50:51.942Z,7.33
2019-05-03T21:53:25.100Z,7.29
2019-05-03T21:55:57.433Z,7.28
2019-05-03T21:58:30.181Z,7.26
2019-05-03T22:01:02.428Z,7.20
2019-05-03T22:03:36.258Z,7.27
2019-05-03T22:06:09.541Z,7.29
2019-05-03T22:08:41.793Z,7.27
2019-05-03T22:11:14.875Z,7.21
2019-05-03T22:13:47.258Z,7.18
2019-05-03T22:16:19.738Z,7.22
2019-05-03T22:18:51.954Z,7.29
2019-05-03T22:21:24.074Z,7.37
2019-05-03T22:23:56.387Z,7.41
2019-05-03T22:26:28.586Z,7.41
2019-05-03T22:29:00.848Z,7.34
2019-05-03T22:31:34.939Z,7.29
2019-05-03T22:34:07.031Z,7.24
2019-05-03T22:36:39.399Z,7.23
2019-05-03T22:39:11.786Z,7.24
2019-05-03T22:41:45.170Z,7.18
2019-05-03T22:44:17.389Z,7.20
2019-05-03T22:46:49.622Z,7.25
2019-05-03T22:49:21.885Z,7.31
2019-05-03T22:51:54.441Z,7.32
2019-05-03T22:54:26.725Z,7.29
2019-05-03T22:56:59.201Z,7.27
2019-05-03T22:59:34.583Z,7.29
2019-05-03T23:02:06.932Z,7.21
2019-05-03T23:04:39.147Z,7.18
2019-05-03T23:07:11.459Z,7.23
2019-05-03T23:09:44.635Z,7.24
2019-05-03T23:12:17.016Z,7.16
2019-05-03T23:14:49.444Z,7.12
2019-05-03T23:17:21.734Z,7.12
2019-05-03T23:19:54.021Z,7.12
2019-05-03T23:22:26.412Z,7.14
2019-05-03T23:24:58.882Z,7.16
2019-05-03T23:27:31.143Z,7.06
2019-05-03T23:30:04.962Z,7.09
2019-05-03T23:32:37.365Z,7.11
2019-05-03T23:35:09.567Z,7.14
2019-05-03T23:37:41.851Z,7.04
2019-05-03T23:40:14.818Z,6.94
2019-05-03T23:42:47.230Z,6.74
2019-05-03T23:45:19.504Z,6.33
2019-05-03T23:47:51.736Z,6.16
2019-05-03T23:50:24.873Z,6.18
2019-05-03T23:52:57.382Z,6.13
2019-05-03T23:55:29.620Z,6.10
2019-05-03T23:58:01.882Z,6.17
